Repto San Juan, Puerto Rico
Current Conditions -  °F | °C
As of 3:50 PM on Sunday 21 Dec 2014 (Local Time) from TJBQ Reporting Station
Clear Clear  
Wind Chill: 81°   Ceiling: Unl
Heat Index: 82°   Visibility: 10mi
Dew Point: 64°   Wind: 20mph
Humidity: 58%   Direction: 100°E
Pressure: 30.03"   Gusts: 26mph
Location:  18.4739°N, 66.7295°W
Report Text: TJBQ 211950Z 10017G23KT 10SM SKC 27/18 A3003 RMK RWY 8 ATIS E
Loading
Personal Weather Stations






























Interactive Weather Map New forecast layout! Learn more

10-Day Weather Forecast

Advertisements
Track Severe Weather on mobile